createdAt,value
2018-09-26T00:02:56.011Z,88.70
2018-09-26T00:07:00.135Z,88.50
2018-09-26T00:11:04.155Z,88.40
2018-09-26T00:15:08.340Z,88.70
2018-09-26T00:19:12.553Z,88.20
2018-09-26T00:23:16.802Z,88.30
2018-09-26T00:27:20.993Z,88.30
2018-09-26T00:31:25.187Z,88.50
2018-09-26T00:35:29.507Z,88.30
2018-09-26T00:39:33.595Z,88.20
2018-09-26T00:43:37.834Z,88.30
2018-09-26T00:47:43.363Z,89.30
2018-09-26T00:51:47.632Z,88.70
2018-09-26T00:55:51.804Z,88.70
2018-09-26T00:59:55.974Z,88.80
2018-09-26T01:04:00.104Z,89.00
2018-09-26T01:08:04.348Z,88.90
2018-09-26T01:12:08.439Z,89.50
2018-09-26T01:16:12.710Z,89.60
2018-09-26T01:20:17.093Z,89.70
2018-09-26T01:24:21.261Z,89.80
2018-09-26T01:28:25.435Z,90.00
2018-09-26T01:32:29.511Z,90.30
2018-09-26T01:36:33.656Z,90.60
2018-09-26T01:40:38.079Z,90.60
2018-09-26T01:44:42.331Z,90.90
2018-09-26T01:48:46.513Z,90.90
2018-09-26T01:52:51.224Z,91.00
2018-09-26T01:56:55.300Z,90.90
2018-09-26T02:00:59.532Z,90.70
2018-09-26T02:05:03.811Z,90.60
2018-09-26T02:09:09.831Z,90.60
2018-09-26T02:13:14.708Z,90.40
2018-09-26T02:17:19.503Z,90.30
2018-09-26T02:21:23.586Z,90.10
2018-09-26T02:25:28.033Z,90.20
2018-09-26T02:29:32.514Z,90.10
2018-09-26T02:33:36.727Z,90.00
2018-09-26T02:37:40.873Z,90.00
2018-09-26T02:41:45.552Z,90.00
2018-09-26T02:45:49.931Z,90.10
2018-09-26T02:49:54.164Z,90.40
2018-09-26T02:53:58.187Z,90.60
2018-09-26T02:58:02.423Z,90.80
2018-09-26T03:02:06.563Z,90.90
2018-09-26T03:06:11.049Z,91.00
2018-09-26T03:10:15.392Z,91.20
2018-09-26T03:14:19.734Z,91.30
2018-09-26T03:18:23.819Z,91.20
2018-09-26T03:22:27.941Z,91.70
2018-09-26T03:26:32.229Z,91.50
2018-09-26T03:30:36.595Z,91.60
2018-09-26T03:34:40.775Z,91.90
2018-09-26T03:38:45.018Z,92.10
2018-09-26T03:42:49.167Z,91.80
2018-09-26T03:46:53.355Z,91.80
2018-09-26T03:50:57.528Z,91.80
2018-09-26T03:55:01.626Z,91.90
2018-09-26T03:59:06.241Z,92.00
2018-09-26T04:03:10.336Z,92.00
2018-09-26T04:07:14.571Z,92.50
2018-09-26T04:11:18.683Z,92.50
2018-09-26T04:15:22.839Z,92.60
2018-09-26T04:19:26.919Z,92.70
2018-09-26T04:23:31.085Z,92.80
2018-09-26T04:27:35.263Z,92.70
2018-09-26T04:31:39.345Z,92.70
2018-09-26T04:35:43.974Z,92.70
2018-09-26T04:39:48.247Z,92.70
2018-09-26T04:43:52.415Z,92.80
2018-09-26T04:47:56.645Z,92.90
2018-09-26T04:52:00.947Z,93.00
2018-09-26T04:56:05.021Z,93.20
2018-09-26T05:00:09.277Z,93.30
2018-09-26T05:04:14.098Z,93.30
2018-09-26T05:08:18.352Z,93.40
2018-09-26T05:12:22.493Z,93.60
2018-09-26T05:16:26.703Z,93.60
2018-09-26T05:20:30.795Z,93.50
2018-09-26T05:24:34.911Z,93.60
2018-09-26T05:28:39.144Z,93.60
2018-09-26T05:32:43.646Z,93.60
2018-09-26T05:36:48.128Z,93.70
2018-09-26T05:40:52.296Z,93.80
2018-09-26T05:44:56.647Z,93.90
2018-09-26T05:49:00.686Z,94.10
2018-09-26T05:53:05.011Z,94.30
2018-09-26T05:57:09.364Z,94.00
2018-09-26T06:01:13.912Z,94.10
2018-09-26T06:05:18.343Z,94.00
2018-09-26T06:09:22.640Z,94.20
2018-09-26T06:13:26.702Z,93.70
2018-09-26T06:17:30.825Z,93.70
2018-09-26T06:21:35.045Z,93.60
2018-09-26T06:25:39.180Z,93.40
2018-09-26T06:29:43.378Z,93.30
2018-09-26T06:33:47.718Z,93.20
2018-09-26T06:37:51.791Z,93.00
2018-09-26T06:41:56.046Z,92.80
2018-09-26T06:46:00.252Z,92.80
2018-09-26T06:50:04.615Z,92.50
2018-09-26T06:54:08.783Z,92.70
2018-09-26T06:58:13.174Z,92.50
2018-09-26T07:02:17.682Z,92.40
2018-09-26T07:06:23.034Z,91.90
2018-09-26T07:10:27.283Z,91.60
2018-09-26T07:14:31.358Z,91.50
2018-09-26T07:18:35.432Z,91.50
2018-09-26T07:22:39.517Z,91.40
2018-09-26T07:26:43.779Z,91.10
2018-09-26T07:30:48.103Z,90.90
2018-09-26T07:34:52.151Z,90.70
2018-09-26T07:38:56.355Z,90.10
2018-09-26T07:43:00.724Z,89.30
2018-09-26T07:47:04.805Z,89.00
2018-09-26T07:51:08.944Z,88.90
2018-09-26T07:55:13.192Z,88.30
2018-09-26T07:59:17.271Z,88.30
2018-09-26T08:03:21.523Z,87.90
2018-09-26T08:07:26.183Z,86.90
2018-09-26T08:11:30.524Z,85.90
2018-09-26T08:15:34.487Z,85.70
2018-09-26T08:19:38.530Z,85.00
2018-09-26T08:23:42.766Z,84.50
2018-09-26T08:27:46.943Z,84.40
2018-09-26T08:31:51.034Z,84.00
2018-09-26T08:35:55.174Z,83.00
2018-09-26T08:39:59.298Z,80.00
2018-09-26T08:44:03.764Z,79.90
2018-09-26T08:48:07.781Z,78.00
2018-09-26T08:52:12.015Z,75.30
2018-09-26T08:56:16.376Z,75.60
2018-09-26T09:00:26.040Z,71.30
2018-09-26T09:04:30.107Z,66.50
2018-09-26T09:08:34.439Z,59.80
2018-09-26T09:12:38.604Z,55.70
2018-09-26T09:16:42.792Z,52.10
2018-09-26T09:20:47.004Z,50.30
2018-09-26T09:24:51.173Z,50.80
2018-09-26T09:28:55.475Z,49.00
2018-09-26T09:32:59.678Z,55.60
2018-09-26T09:37:03.871Z,55.50
2018-09-26T09:41:08.024Z,56.40
2018-09-26T09:45:13.568Z,54.30
2018-09-26T09:49:18.043Z,53.90
2018-09-26T09:53:22.300Z,54.80
2018-09-26T09:57:26.564Z,55.00
2018-09-26T10:01:30.701Z,57.10
2018-09-26T10:05:34.893Z,59.90
2018-09-26T10:09:39.051Z,62.10
2018-09-26T10:13:43.495Z,65.50
2018-09-26T10:17:48.156Z,66.20
2018-09-26T10:21:52.402Z,67.80
2018-09-26T10:25:56.690Z,69.40
2018-09-26T10:30:00.958Z,69.90
2018-09-26T10:34:05.331Z,71.30
2018-09-26T10:38:09.704Z,71.90
2018-09-26T10:42:14.278Z,72.40
2018-09-26T10:46:18.383Z,73.60
2018-09-26T10:50:22.873Z,73.60
2018-09-26T10:54:27.166Z,75.50
2018-09-26T10:58:31.339Z,77.30
2018-09-26T11:02:35.868Z,78.50
2018-09-26T11:06:40.112Z,78.10
2018-09-26T11:10:44.429Z,78.90
2018-09-26T11:14:48.519Z,79.20
2018-09-26T11:18:53.120Z,78.90
2018-09-26T11:22:57.550Z,79.60
2018-09-26T11:27:01.715Z,80.30
2018-09-26T11:31:05.911Z,81.40
2018-09-26T11:35:10.381Z,81.80
2018-09-26T11:39:14.509Z,82.30
2018-09-26T11:43:18.658Z,83.50
2018-09-26T11:47:22.793Z,83.90
2018-09-26T11:51:27.029Z,83.80
2018-09-26T11:55:31.242Z,84.10
2018-09-26T11:59:35.351Z,84.50
2018-09-26T12:03:39.652Z,83.90
2018-09-26T12:07:43.816Z,84.00
2018-09-26T12:11:47.968Z,85.00
2018-09-26T12:15:52.138Z,84.60
2018-09-26T12:19:56.183Z,85.20
2018-09-26T12:24:00.259Z,85.90
2018-09-26T12:28:04.306Z,86.00
2018-09-26T12:32:08.415Z,85.60
2018-09-26T12:36:12.628Z,85.60
2018-09-26T12:40:16.766Z,85.40
2018-09-26T12:44:20.942Z,85.30
2018-09-26T12:48:25.034Z,84.90
2018-09-26T12:52:29.083Z,84.30
2018-09-26T12:56:33.487Z,84.60
2018-09-26T13:00:37.702Z,84.60
2018-09-26T13:04:42.696Z,84.20
2018-09-26T13:08:47.110Z,82.80
2018-09-26T13:12:51.563Z,83.10
2018-09-26T13:16:55.670Z,82.90
2018-09-26T13:20:59.790Z,82.20
2018-09-26T13:25:03.932Z,82.40
2018-09-26T13:29:08.154Z,82.20
2018-09-26T13:33:12.614Z,81.10
2018-09-26T13:37:16.836Z,80.30
2018-09-26T13:41:21.066Z,79.20
2018-09-26T13:45:25.154Z,80.90
2018-09-26T13:49:29.318Z,81.40
2018-09-26T13:53:33.426Z,82.10
2018-09-26T13:57:37.781Z,81.10
2018-09-26T14:01:42.076Z,81.60
2018-09-26T14:05:46.431Z,82.00
2018-09-26T14:09:50.609Z,82.50
2018-09-26T14:13:54.927Z,82.00
2018-09-26T14:17:58.939Z,81.20
2018-09-26T14:22:03.026Z,81.50
2018-09-26T14:26:07.140Z,80.30
2018-09-26T14:30:13.858Z,79.10
2018-09-26T14:34:18.073Z,78.60
2018-09-26T14:38:22.379Z,78.60
2018-09-26T14:42:26.435Z,79.40
2018-09-26T14:46:30.608Z,79.60
2018-09-26T14:50:34.742Z,79.00
2018-09-26T14:54:38.950Z,79.30
2018-09-26T14:58:43.173Z,77.70
2018-09-26T15:02:47.560Z,78.00
2018-09-26T15:06:51.656Z,79.20
2018-09-26T15:10:55.769Z,79.20
2018-09-26T15:15:00.060Z,79.10
2018-09-26T15:19:04.215Z,80.20
2018-09-26T15:23:08.539Z,78.90
2018-09-26T15:27:13.937Z,79.40
2018-09-26T15:31:18.447Z,79.10
2018-09-26T15:35:22.558Z,79.30
2018-09-26T15:39:26.793Z,78.20
2018-09-26T15:43:30.960Z,78.60
2018-09-26T15:47:35.338Z,79.30
2018-09-26T15:51:39.587Z,80.20
2018-09-26T15:55:44.129Z,80.40
2018-09-26T15:59:48.311Z,81.00
2018-09-26T16:03:52.499Z,81.80
2018-09-26T16:07:56.942Z,81.30
2018-09-26T16:12:01.098Z,81.20
2018-09-26T16:16:05.144Z,81.60
2018-09-26T16:20:09.230Z,82.00
2018-09-26T16:24:13.887Z,82.00
2018-09-26T16:28:18.133Z,82.00
2018-09-26T16:32:23.566Z,82.00
2018-09-26T16:36:27.820Z,81.20
2018-09-26T16:40:31.884Z,81.50
2018-09-26T16:44:35.934Z,82.30
2018-09-26T16:48:40.006Z,82.80
2018-09-26T16:52:44.206Z,83.70
2018-09-26T16:56:48.435Z,83.70
2018-09-26T17:00:52.645Z,84.40
2018-09-26T17:04:56.760Z,85.00
2018-09-26T17:09:00.868Z,85.70
2018-09-26T17:13:05.248Z,86.30
2018-09-26T17:17:09.375Z,86.90
2018-09-26T17:21:13.560Z,87.40
2018-09-26T17:25:17.776Z,87.80
2018-09-26T17:29:21.817Z,88.40
2018-09-26T17:33:25.879Z,88.80
2018-09-26T17:37:29.938Z,89.20
2018-09-26T17:41:34.130Z,89.60
2018-09-26T17:45:38.281Z,89.90
2018-09-26T17:49:42.403Z,89.60
2018-09-26T17:53:47.743Z,90.00
2018-09-26T17:57:51.971Z,89.50
2018-09-26T18:01:56.304Z,89.50
2018-09-26T18:06:00.716Z,89.50
2018-09-26T18:10:04.795Z,89.60
2018-09-26T18:14:08.931Z,89.60
2018-09-26T18:18:13.162Z,89.40
2018-09-26T18:22:17.428Z,89.10
2018-09-26T18:26:21.563Z,89.60
2018-09-26T18:30:25.653Z,90.10
2018-09-26T18:34:29.770Z,90.00
2018-09-26T18:38:35.636Z,90.40
2018-09-26T18:42:39.996Z,90.30
2018-09-26T18:46:44.173Z,90.00
2018-09-26T18:50:48.323Z,90.10
2018-09-26T18:54:52.453Z,90.20
2018-09-26T18:58:56.727Z,90.30
2018-09-26T19:03:00.743Z,90.40
2018-09-26T19:07:04.823Z,90.70
2018-09-26T19:11:08.876Z,90.90
2018-09-26T19:15:14.068Z,90.90
2018-09-26T19:19:18.202Z,91.30
2018-09-26T19:23:22.491Z,91.30
2018-09-26T19:27:26.567Z,91.70
2018-09-26T19:31:30.718Z,91.60
2018-09-26T19:35:34.867Z,91.70
2018-09-26T19:39:39.039Z,91.90
2018-09-26T19:43:43.274Z,91.70
2018-09-26T19:47:47.826Z,92.00
2018-09-26T19:51:51.910Z,92.20
2018-09-26T19:55:56.485Z,92.20
2018-09-26T20:00:00.791Z,92.20
2018-09-26T20:04:05.138Z,92.50
2018-09-26T20:08:09.469Z,92.50
2018-09-26T20:12:14.233Z,92.50
2018-09-26T20:16:18.407Z,93.00
2018-09-26T20:20:22.627Z,92.90
2018-09-26T20:24:26.706Z,92.90
2018-09-26T20:28:31.060Z,92.90
2018-09-26T20:32:35.218Z,93.00
2018-09-26T20:36:40.565Z,93.00
2018-09-26T20:40:45.843Z,93.00
2018-09-26T20:44:50.161Z,93.00
2018-09-26T20:48:54.217Z,92.70
2018-09-26T20:52:58.475Z,93.00
2018-09-26T20:57:02.562Z,92.90
2018-09-26T21:01:07.039Z,93.10
2018-09-26T21:05:11.526Z,92.70
2018-09-26T21:09:16.960Z,92.80
2018-09-26T21:13:20.987Z,92.90
2018-09-26T21:17:25.400Z,92.90
2018-09-26T21:21:29.635Z,92.90
2018-09-26T21:25:33.790Z,93.10
2018-09-26T21:29:37.865Z,93.20
2018-09-26T21:33:42.054Z,93.60
2018-09-26T21:37:46.234Z,93.40
2018-09-26T21:41:50.525Z,93.50
2018-09-26T21:45:54.766Z,93.70
2018-09-26T21:49:58.877Z,93.80
2018-09-26T21:54:03.047Z,93.80
2018-09-26T21:58:07.295Z,93.80
2018-09-26T22:02:11.732Z,93.90
2018-09-26T22:06:16.247Z,93.90
2018-09-26T22:10:20.388Z,93.90
2018-09-26T22:14:24.753Z,94.00
2018-09-26T22:18:28.812Z,93.80
2018-09-26T22:22:33.003Z,93.70
2018-09-26T22:26:37.094Z,93.70
2018-09-26T22:30:41.640Z,93.80
2018-09-26T22:34:46.013Z,93.90
2018-09-26T22:38:50.101Z,94.20
2018-09-26T22:42:54.511Z,94.00
2018-09-26T22:46:58.595Z,94.10
2018-09-26T22:51:02.848Z,94.20
2018-09-26T22:55:06.978Z,94.50
2018-09-26T22:59:11.329Z,94.70
2018-09-26T23:03:15.639Z,94.40
2018-09-26T23:07:19.805Z,94.50
2018-09-26T23:11:23.990Z,94.60
2018-09-26T23:15:28.196Z,94.70
2018-09-26T23:19:32.255Z,94.90
2018-09-26T23:23:37.528Z,94.70
2018-09-26T23:27:42.084Z,94.90
2018-09-26T23:31:46.547Z,95.00
2018-09-26T23:35:50.784Z,95.20
2018-09-26T23:39:55.177Z,95.30
2018-09-26T23:43:59.640Z,95.40
2018-09-26T23:48:05.624Z,95.60
2018-09-26T23:52:09.860Z,95.60
2018-09-26T23:56:14.393Z,95.60
